createdAt,value
2022-11-10T00:02:23.965Z,2.66
2022-11-10T00:04:51.700Z,2.86
2022-11-10T00:07:18.981Z,2.88
2022-11-10T00:09:46.305Z,3.28
2022-11-10T00:12:13.095Z,2.82
2022-11-10T00:14:40.033Z,2.71
2022-11-10T00:17:07.554Z,2.63
2022-11-10T00:22:30.483Z,2.75
2022-11-10T00:24:57.322Z,2.60
2022-11-10T00:27:32.441Z,2.89
2022-11-10T00:30:47.020Z,2.86
2022-11-10T00:33:14.625Z,2.71
2022-11-10T00:35:45.012Z,2.85
2022-11-10T00:41:05.533Z,3.22
2022-11-10T00:43:35.606Z,2.72
2022-11-10T00:46:04.054Z,2.88
2022-11-10T00:48:30.932Z,2.69
2022-11-10T00:50:59.602Z,2.45
2022-11-10T00:53:27.247Z,2.45
2022-11-10T00:55:55.185Z,2.47
2022-11-10T00:58:24.756Z,2.38
2022-11-10T01:00:51.638Z,2.32
2022-11-10T01:03:18.964Z,2.50
2022-11-10T01:05:48.272Z,2.73
2022-11-10T01:08:14.974Z,2.28
2022-11-10T01:10:45.110Z,2.39
2022-11-10T01:13:12.417Z,2.47
2022-11-10T01:15:39.614Z,2.85
2022-11-10T01:18:07.046Z,2.58
2022-11-10T01:20:34.860Z,2.31
2022-11-10T01:23:03.081Z,2.66
2022-11-10T01:25:31.590Z,2.61
2022-11-10T01:27:58.920Z,2.41
2022-11-10T01:30:25.788Z,2.59
2022-11-10T01:32:53.407Z,2.71
2022-11-10T01:35:22.887Z,2.36
2022-11-10T01:37:51.876Z,2.43
2022-11-10T01:40:26.564Z,2.57
2022-11-10T01:42:55.148Z,2.66
2022-11-10T01:45:22.965Z,2.47
2022-11-10T01:47:49.478Z,2.91
2022-11-10T01:50:18.053Z,3.39
2022-11-10T01:52:44.572Z,3.95
2022-11-10T01:55:11.513Z,3.61
2022-11-10T01:57:38.248Z,3.83
2022-11-10T02:00:06.383Z,4.57
2022-11-10T02:02:33.853Z,4.11
2022-11-10T02:05:06.813Z,3.93
2022-11-10T02:07:37.828Z,3.94
2022-11-10T02:10:06.596Z,4.07
2022-11-10T02:12:33.882Z,4.04
2022-11-10T02:15:00.709Z,4.17
2022-11-10T02:17:27.852Z,4.00
2022-11-10T02:19:55.386Z,4.02
2022-11-10T02:22:22.973Z,3.77
2022-11-10T02:24:52.398Z,3.61
2022-11-10T02:27:19.273Z,3.49
2022-11-10T02:29:45.855Z,3.45
2022-11-10T02:32:13.294Z,3.44
2022-11-10T02:34:40.160Z,3.29
2022-11-10T02:37:08.967Z,2.93
2022-11-10T02:39:39.366Z,3.05
2022-11-10T02:42:06.477Z,3.09
2022-11-10T02:44:35.578Z,3.01
2022-11-10T02:47:04.220Z,3.15
2022-11-10T02:49:34.849Z,2.99
2022-11-10T02:52:03.837Z,3.10
2022-11-10T02:54:30.546Z,3.20
2022-11-10T02:57:00.921Z,3.18
2022-11-10T02:59:28.090Z,2.96
2022-11-10T03:01:55.714Z,3.07
2022-11-10T03:04:24.288Z,2.91
2022-11-10T03:09:32.818Z,3.07
2022-11-10T03:11:59.634Z,2.91
2022-11-10T03:14:28.390Z,2.89
2022-11-10T03:16:57.361Z,3.06
2022-11-10T03:19:26.351Z,3.28
2022-11-10T03:21:55.404Z,3.25
2022-11-10T03:24:22.071Z,2.61
2022-11-10T03:26:56.291Z,2.93
2022-11-10T03:29:26.622Z,2.97
2022-11-10T03:31:57.968Z,3.12
2022-11-10T03:34:28.162Z,3.33
2022-11-10T03:36:58.483Z,3.21
2022-11-10T03:39:25.335Z,3.33
2022-11-10T03:41:53.202Z,3.37
2022-11-10T03:44:22.628Z,3.40
2022-11-10T03:46:55.734Z,3.35
2022-11-10T03:49:23.349Z,3.66
2022-11-10T03:51:52.057Z,4.08
2022-11-10T03:54:26.820Z,3.99
2022-11-10T03:56:53.612Z,4.05
2022-11-10T03:59:23.205Z,4.01
2022-11-10T04:01:50.599Z,3.91
2022-11-10T04:04:19.301Z,3.99
2022-11-10T04:06:46.218Z,3.89
2022-11-10T04:09:15.290Z,3.65
2022-11-10T04:11:53.722Z,3.59
2022-11-10T04:14:43.577Z,3.83
2022-11-10T04:17:18.000Z,3.46
2022-11-10T04:19:46.387Z,3.42
2022-11-10T04:22:16.815Z,3.58
2022-11-10T04:24:44.330Z,3.83
2022-11-10T04:27:12.355Z,3.47
2022-11-10T04:29:39.295Z,3.57
2022-11-10T04:32:06.351Z,3.43
2022-11-10T04:34:33.144Z,3.45
2022-11-10T04:37:01.165Z,3.26
2022-11-10T04:39:27.908Z,3.32
2022-11-10T04:42:02.483Z,3.46
2022-11-10T04:44:29.776Z,3.77
2022-11-10T04:46:57.029Z,3.65
2022-11-10T04:49:24.065Z,3.42
2022-11-10T04:51:50.928Z,3.66
2022-11-10T04:54:18.191Z,3.68
2022-11-10T04:56:45.931Z,3.58
2022-11-10T04:59:13.187Z,2.92
2022-11-10T05:04:24.990Z,2.47
2022-11-10T05:06:52.283Z,2.31
2022-11-10T05:09:20.109Z,2.52
2022-11-10T05:11:47.397Z,2.76
2022-11-10T05:14:14.823Z,2.75
2022-11-10T05:16:43.007Z,2.33
2022-11-10T05:19:10.349Z,2.53
2022-11-10T05:21:44.808Z,1.83
2022-11-10T05:24:13.170Z,1.95
2022-11-10T05:26:47.795Z,1.82
2022-11-10T05:31:59.775Z,1.83
2022-11-10T05:34:29.422Z,2.09
2022-11-10T05:36:59.570Z,1.42
2022-11-10T05:39:45.530Z,1.49
2022-11-10T05:42:20.464Z,1.48
2022-11-10T05:44:48.220Z,1.51
2022-11-10T05:47:19.270Z,1.69
2022-11-10T05:52:38.930Z,1.64
2022-11-10T05:55:15.014Z,1.32
2022-11-10T05:57:43.013Z,1.66
2022-11-10T06:00:12.503Z,1.60
2022-11-10T06:03:00.236Z,2.46
2022-11-10T06:08:23.886Z,2.39
2022-11-10T06:10:51.004Z,2.41
2022-11-10T06:13:28.086Z,2.53
2022-11-10T06:15:55.505Z,2.17
2022-11-10T06:18:24.203Z,1.90
2022-11-10T06:20:51.758Z,1.57
2022-11-10T06:23:24.805Z,1.80
2022-11-10T06:25:51.865Z,1.73
2022-11-10T06:28:20.277Z,1.67
2022-11-10T06:30:47.326Z,1.59
2022-11-10T06:33:15.491Z,1.56
2022-11-10T06:35:42.356Z,1.50
2022-11-10T06:38:09.710Z,1.57
2022-11-10T06:40:36.562Z,1.73
2022-11-10T06:43:08.243Z,1.60
2022-11-10T06:45:36.988Z,1.76
2022-11-10T06:48:04.680Z,1.75
2022-11-10T06:50:34.945Z,1.89
2022-11-10T06:53:02.981Z,1.68
2022-11-10T06:55:32.151Z,1.89
2022-11-10T06:57:59.726Z,1.90
2022-11-10T07:00:29.726Z,1.79
2022-11-10T07:02:58.097Z,2.18
2022-11-10T07:05:26.479Z,2.23
2022-11-10T07:07:53.939Z,2.10
2022-11-10T07:10:24.014Z,2.21
2022-11-10T07:12:51.058Z,2.29
2022-11-10T07:18:07.987Z,2.31
2022-11-10T07:20:35.911Z,2.11
2022-11-10T07:23:03.538Z,1.99
2022-11-10T07:25:32.084Z,2.25
2022-11-10T07:28:02.327Z,2.20
2022-11-10T07:30:32.261Z,2.42
2022-11-10T07:32:59.484Z,2.33
2022-11-10T07:35:27.059Z,2.25
2022-11-10T07:37:55.114Z,2.42
2022-11-10T07:43:26.862Z,2.79
2022-11-10T07:48:53.925Z,3.11
2022-11-10T07:54:18.767Z,3.50
2022-11-10T07:56:48.990Z,3.57
2022-11-10T08:02:18.637Z,3.82
2022-11-10T08:05:10.864Z,3.84
2022-11-10T08:07:46.831Z,3.46
2022-11-10T08:10:19.090Z,3.89
2022-11-10T08:13:19.978Z,3.67
2022-11-10T08:15:51.481Z,4.55
2022-11-10T08:18:34.934Z,4.41
2022-11-10T08:21:03.488Z,3.79
2022-11-10T08:23:41.625Z,3.55
2022-11-10T08:26:09.744Z,3.68
2022-11-10T08:28:37.435Z,3.54
2022-11-10T08:31:07.123Z,3.48
2022-11-10T08:33:45.973Z,3.33
2022-11-10T10:22:39.649Z,2.42
2022-11-10T10:25:18.800Z,2.50
2022-11-10T10:47:45.221Z,2.82
2022-11-10T10:50:20.738Z,2.68
2022-11-10T10:52:47.964Z,2.42
2022-11-10T10:55:33.551Z,2.43
2022-11-10T11:00:45.137Z,2.59
2022-11-10T11:03:29.710Z,2.56
2022-11-10T11:08:45.200Z,2.40
2022-11-10T11:32:20.082Z,2.48
2022-11-10T11:41:34.295Z,3.65
2022-11-10T11:59:03.071Z,2.69
2022-11-10T12:08:27.827Z,2.88
2022-11-10T12:11:06.237Z,2.95
2022-11-10T12:13:39.627Z,3.13
2022-11-10T12:16:18.984Z,3.04
2022-11-10T12:19:14.562Z,3.27
2022-11-10T12:21:46.648Z,3.22
2022-11-10T12:30:02.158Z,3.05
2022-11-10T12:35:32.045Z,3.20
2022-11-10T12:38:15.212Z,3.83
2022-11-10T12:40:46.696Z,2.99
2022-11-10T12:48:51.570Z,2.90
2022-11-10T12:51:25.068Z,2.58
2022-11-10T12:54:11.099Z,2.75
2022-11-10T12:59:37.579Z,2.46
2022-11-10T13:02:29.208Z,2.22
2022-11-10T13:05:16.207Z,2.14
2022-11-10T13:07:51.724Z,2.16
2022-11-10T13:10:19.350Z,2.61
2022-11-10T13:12:49.634Z,2.67
2022-11-10T13:15:18.425Z,2.55
2022-11-10T13:17:46.137Z,2.33
2022-11-10T13:20:31.000Z,2.03
2022-11-10T13:23:02.097Z,2.21
2022-11-10T13:25:33.432Z,2.39
2022-11-10T13:28:00.612Z,2.60
2022-11-10T13:30:47.866Z,2.52
2022-11-10T13:33:17.858Z,2.13
2022-11-10T13:35:45.209Z,1.89
2022-11-10T13:38:16.424Z,2.31
2022-11-10T13:41:13.370Z,2.02
2022-11-10T13:43:42.097Z,2.10
2022-11-10T13:46:12.332Z,2.35
2022-11-10T13:48:39.645Z,2.65
2022-11-10T13:51:19.827Z,2.78
2022-11-10T13:54:00.375Z,2.66
2022-11-10T13:56:38.640Z,2.84
2022-11-10T13:59:12.360Z,2.41
2022-11-10T14:10:51.329Z,2.25
2022-11-10T14:13:20.501Z,2.11
2022-11-10T14:18:30.947Z,2.11
2022-11-10T16:10:54.016Z,123.14
2022-11-10T16:13:20.904Z,175.81
2022-11-10T16:15:48.026Z,141.24
2022-11-10T16:18:14.740Z,42.16
2022-11-10T16:40:05.933Z,2.72
2022-11-10T16:42:43.533Z,2.56
2022-11-10T16:45:14.919Z,2.86
2022-11-10T16:47:44.979Z,2.69
2022-11-10T16:50:13.151Z,3.05
2022-11-10T16:52:47.323Z,2.78
2022-11-10T16:55:20.511Z,2.94
2022-11-10T16:57:55.407Z,3.37
2022-11-10T17:06:28.951Z,2.99
2022-11-10T17:08:57.839Z,3.44
2022-11-10T17:11:28.315Z,3.54
2022-11-10T17:13:55.811Z,2.87
2022-11-10T17:16:24.364Z,2.95
2022-11-10T18:56:50.705Z,7.62
2022-11-10T18:59:17.489Z,6.08
2022-11-10T19:08:16.721Z,13.36
2022-11-10T19:10:45.667Z,7.57
2022-11-10T19:28:57.904Z,7.12
2022-11-10T19:31:34.543Z,8.19
2022-11-10T19:34:01.254Z,5.56
2022-11-10T19:43:06.356Z,17.16
2022-11-10T19:51:56.781Z,41.52
2022-11-10T20:03:32.282Z,73.05
2022-11-10T20:21:27.865Z,293.56
2022-11-10T20:23:55.387Z,345.94
2022-11-10T20:26:21.877Z,64.93
2022-11-10T20:28:48.296Z,33.33
2022-11-10T20:31:15.054Z,25.90
2022-11-10T20:33:41.984Z,14.70
2022-11-10T20:36:08.893Z,13.21
2022-11-10T20:38:35.628Z,13.70
2022-11-10T20:41:02.188Z,57.72
2022-11-10T20:43:30.974Z,94.32
2022-11-10T20:45:57.780Z,112.87
2022-11-10T20:48:24.589Z,55.02
2022-11-10T20:50:51.100Z,182.47
2022-11-10T20:53:20.085Z,106.95
2022-11-10T21:30:23.903Z,22.88
2022-11-10T21:32:50.399Z,140.71
2022-11-10T21:35:17.081Z,170.71
2022-11-10T21:37:43.828Z,53.04
2022-11-10T21:40:10.329Z,50.45
2022-11-10T21:42:36.935Z,20.28
2022-11-10T21:45:04.250Z,43.60
2022-11-10T21:47:30.996Z,66.05
2022-11-10T21:49:57.761Z,98.10
2022-11-10T21:52:24.375Z,35.99
2022-11-10T21:54:51.257Z,41.87
2022-11-10T21:57:18.592Z,40.62
2022-11-10T21:59:45.050Z,36.48
2022-11-10T22:02:12.769Z,135.02
2022-11-10T22:07:34.179Z,7.82
2022-11-10T22:10:02.559Z,7.76
2022-11-10T22:12:39.016Z,7.84
2022-11-10T22:15:07.619Z,7.45
2022-11-10T22:17:35.550Z,7.86
2022-11-10T22:20:03.062Z,8.60
2022-11-10T22:22:29.740Z,8.19
2022-11-10T22:24:57.164Z,7.46
2022-11-10T22:27:23.811Z,7.12
2022-11-10T22:29:50.714Z,6.85
2022-11-10T22:32:19.270Z,6.95
2022-11-10T22:34:45.938Z,7.53
2022-11-10T22:37:12.758Z,7.08
2022-11-10T22:39:41.559Z,7.15
2022-11-10T22:42:08.454Z,7.13
2022-11-10T22:44:35.965Z,6.96
2022-11-10T22:47:02.987Z,6.82
2022-11-10T22:49:31.164Z,6.99
2022-11-10T22:51:58.339Z,6.81
2022-11-10T22:54:27.282Z,7.05
2022-11-10T22:56:54.135Z,6.73
2022-11-10T22:59:23.922Z,6.70
2022-11-10T23:01:51.477Z,6.83
2022-11-10T23:04:18.184Z,6.90
2022-11-10T23:06:45.553Z,6.79
2022-11-10T23:09:13.080Z,6.38
2022-11-10T23:11:42.744Z,6.51
2022-11-10T23:14:09.692Z,6.47
2022-11-10T23:16:39.961Z,6.42
2022-11-10T23:19:08.798Z,6.17
2022-11-10T23:21:40.377Z,6.38
2022-11-10T23:24:07.027Z,6.54
2022-11-10T23:26:33.699Z,6.57
2022-11-10T23:29:00.517Z,6.23
2022-11-10T23:31:27.155Z,6.04
2022-11-10T23:33:55.016Z,6.66
2022-11-10T23:36:21.642Z,5.99
2022-11-10T23:38:48.427Z,6.18
2022-11-10T23:41:15.297Z,6.16
2022-11-10T23:43:42.234Z,6.21
2022-11-10T23:46:09.820Z,6.58
2022-11-10T23:48:36.584Z,6.29
2022-11-10T23:51:03.312Z,6.15
2022-11-10T23:53:29.901Z,6.24
2022-11-10T23:55:56.600Z,6.53
2022-11-10T23:58:23.134Z,6.37
